createdAt,value
2018-07-14T00:00:36.641Z,7.07
2018-07-14T00:03:05.381Z,6.87
2018-07-14T00:05:33.888Z,7.10
2018-07-14T00:08:02.300Z,6.90
2018-07-14T00:10:30.890Z,6.87
2018-07-14T00:12:59.380Z,7.97
2018-07-14T00:15:27.835Z,8.23
2018-07-14T00:17:56.297Z,8.80
2018-07-14T00:20:24.817Z,8.20
2018-07-14T00:22:53.339Z,8.07
2018-07-14T00:26:25.862Z,9.23
2018-07-14T00:28:54.374Z,9.40
2018-07-14T00:31:22.844Z,8.53
2018-07-14T00:33:51.281Z,9.37
2018-07-14T00:36:19.821Z,9.03
2018-07-14T00:38:48.244Z,9.20
2018-07-14T00:41:16.702Z,8.60
2018-07-14T00:43:45.242Z,8.70
2018-07-14T00:46:13.688Z,8.13
2018-07-14T00:48:42.299Z,9.13
2018-07-14T00:51:10.787Z,10.07
2018-07-14T00:53:39.311Z,9.80
2018-07-14T00:56:07.862Z,9.90
2018-07-14T00:58:36.381Z,9.33
2018-07-14T01:01:04.998Z,10.20
2018-07-14T01:03:33.614Z,10.30
2018-07-14T01:06:02.031Z,10.47
2018-07-14T01:08:30.579Z,10.93
2018-07-14T01:10:59.190Z,10.50
2018-07-14T01:13:27.740Z,10.80
2018-07-14T01:15:56.855Z,10.20
2018-07-14T01:18:25.437Z,11.63
2018-07-14T01:20:54.565Z,11.90
2018-07-14T01:23:23.191Z,11.43
2018-07-14T01:25:51.670Z,10.87
2018-07-14T01:28:20.118Z,11.03
2018-07-14T01:30:48.751Z,11.40
2018-07-14T01:33:17.172Z,11.17
2018-07-14T01:35:45.820Z,10.83
2018-07-14T01:38:15.042Z,12.17
2018-07-14T01:40:43.567Z,12.13
2018-07-14T01:43:12.079Z,12.33
2018-07-14T01:45:40.510Z,12.20
2018-07-14T01:48:09.056Z,11.73
2018-07-14T01:50:37.544Z,13.63
2018-07-14T01:53:06.130Z,13.23
2018-07-14T01:55:34.593Z,13.00
2018-07-14T01:58:03.044Z,13.53
2018-07-14T02:00:31.464Z,13.33
2018-07-14T02:03:08.042Z,14.03
2018-07-14T02:05:36.494Z,13.27
2018-07-14T02:08:04.953Z,14.47
2018-07-14T02:10:33.491Z,13.60
2018-07-14T02:13:01.961Z,13.67
2018-07-14T02:15:30.541Z,13.60
2018-07-14T02:17:59.016Z,13.47
2018-07-14T02:20:27.490Z,14.90
2018-07-14T02:22:55.994Z,14.57
2018-07-14T02:25:24.403Z,15.10
2018-07-14T02:27:52.952Z,15.13
2018-07-14T02:30:21.425Z,15.23
2018-07-14T02:32:49.873Z,14.77
2018-07-14T02:35:18.399Z,13.83
2018-07-14T02:37:47.774Z,16.37
2018-07-14T02:40:16.286Z,16.53
2018-07-14T02:42:44.804Z,15.87
2018-07-14T02:45:13.328Z,15.43
2018-07-14T02:47:42.837Z,15.20
2018-07-14T02:50:11.439Z,13.77
2018-07-14T02:52:40.016Z,16.80
2018-07-14T02:55:08.445Z,16.00
2018-07-14T02:57:36.969Z,18.13
2018-07-14T03:00:05.494Z,17.73
2018-07-14T03:02:33.932Z,17.30
2018-07-14T03:05:02.482Z,18.90
2018-07-14T03:07:30.945Z,17.60
2018-07-14T03:09:59.379Z,16.77
2018-07-14T03:12:27.852Z,17.47
2018-07-14T03:14:56.304Z,17.13
2018-07-14T03:17:24.789Z,16.87
2018-07-14T03:19:53.256Z,17.90
2018-07-14T03:22:21.802Z,19.00
2018-07-14T03:24:50.373Z,18.23
2018-07-14T03:27:18.860Z,17.33
2018-07-14T03:29:47.286Z,17.53
2018-07-14T03:32:15.744Z,16.97
2018-07-14T03:34:44.305Z,15.27
2018-07-14T03:37:13.049Z,16.43
2018-07-14T03:39:41.576Z,19.00
2018-07-14T03:42:10.043Z,18.67
2018-07-14T03:44:47.948Z,18.03
2018-07-14T03:47:16.469Z,18.67
2018-07-14T03:49:44.928Z,19.00
2018-07-14T03:52:13.431Z,19.43
2018-07-14T03:54:41.861Z,19.93
2018-07-14T03:57:10.473Z,19.20
2018-07-14T03:59:38.954Z,18.27
2018-07-14T04:02:07.450Z,18.80
2018-07-14T04:04:35.865Z,19.37
2018-07-14T04:07:04.374Z,19.47
2018-07-14T04:09:32.897Z,19.43
2018-07-14T04:12:01.317Z,19.60
2018-07-14T04:14:29.900Z,18.87
2018-07-14T04:16:58.444Z,20.00
2018-07-14T04:19:26.945Z,19.03
2018-07-14T04:22:35.925Z,17.07
2018-07-14T04:25:04.459Z,16.40
2018-07-14T04:27:33.020Z,15.77
2018-07-14T04:30:01.513Z,16.70
2018-07-14T04:32:30.015Z,17.70
2018-07-14T04:34:58.554Z,19.20
2018-07-14T04:37:27.050Z,19.87
2018-07-14T04:39:55.534Z,17.90
2018-07-14T04:42:24.016Z,18.43
2018-07-14T04:44:52.487Z,19.23
2018-07-14T04:47:20.931Z,18.93
2018-07-14T04:49:49.441Z,18.37
2018-07-14T04:52:17.916Z,17.73
2018-07-14T04:54:46.420Z,19.73
2018-07-14T04:57:14.928Z,17.77
2018-07-14T04:59:43.493Z,18.23
2018-07-14T05:02:12.105Z,17.77
2018-07-14T05:04:54.381Z,19.20
2018-07-14T05:07:22.953Z,18.80
2018-07-14T05:09:51.373Z,19.30
2018-07-14T05:12:20.031Z,18.30
2018-07-14T05:14:48.604Z,18.83
2018-07-14T05:17:17.088Z,18.60
2018-07-14T05:19:45.582Z,17.60
2018-07-14T05:22:14.165Z,19.20
2018-07-14T05:24:42.657Z,19.73
2018-07-14T05:27:11.121Z,18.67
2018-07-14T05:29:39.650Z,20.30
2018-07-14T05:32:08.087Z,20.73
2018-07-14T05:34:36.667Z,20.00
2018-07-14T05:37:05.360Z,19.37
2018-07-14T05:39:33.830Z,19.87
2018-07-14T05:42:02.331Z,20.00
2018-07-14T05:44:30.917Z,20.37
2018-07-14T05:46:59.374Z,20.03
2018-07-14T05:49:27.968Z,20.43
2018-07-14T05:51:56.495Z,20.50
2018-07-14T05:54:25.087Z,20.40
2018-07-14T05:56:53.668Z,21.07
2018-07-14T05:59:22.120Z,21.33
2018-07-14T06:01:50.776Z,19.83
2018-07-14T06:04:19.254Z,20.20
2018-07-14T06:06:47.772Z,20.47
2018-07-14T06:09:16.332Z,21.50
2018-07-14T06:11:44.830Z,20.67
2018-07-14T06:14:15.509Z,20.60
2018-07-14T06:16:44.096Z,20.73
2018-07-14T06:19:12.617Z,20.50
2018-07-14T06:21:41.094Z,20.27
2018-07-14T06:24:09.568Z,19.37
2018-07-14T06:26:38.056Z,19.83
2018-07-14T06:29:06.666Z,20.17
2018-07-14T06:31:35.116Z,19.43
2018-07-14T06:34:03.589Z,19.67
2018-07-14T06:36:32.083Z,20.90
2018-07-14T06:39:00.550Z,20.53
2018-07-14T06:41:29.058Z,20.97
2018-07-14T06:43:57.645Z,19.43
2018-07-14T06:46:26.121Z,21.20
2018-07-14T06:48:54.663Z,22.40
2018-07-14T06:51:23.163Z,19.50
2018-07-14T06:53:51.656Z,20.07
2018-07-14T06:56:20.119Z,20.43
2018-07-14T06:58:48.805Z,18.77
2018-07-14T07:01:17.261Z,19.17
2018-07-14T07:03:45.890Z,21.03
2018-07-14T07:06:14.453Z,19.07
2018-07-14T07:08:42.888Z,20.70
2018-07-14T07:11:11.660Z,20.53
2018-07-14T07:13:45.371Z,20.07
2018-07-14T07:16:13.852Z,20.47
2018-07-14T07:18:42.406Z,19.33
2018-07-14T07:21:11.114Z,20.80
2018-07-14T07:23:39.636Z,21.00
2018-07-14T07:26:08.099Z,21.10
2018-07-14T07:28:36.767Z,20.03
2018-07-14T07:31:05.265Z,20.40
2018-07-14T07:33:33.841Z,18.93
2018-07-14T07:36:02.372Z,18.90
2018-07-14T07:38:30.904Z,18.70
2018-07-14T07:40:59.369Z,17.63
2018-07-14T07:43:27.976Z,15.70
2018-07-14T07:45:56.568Z,17.13
2018-07-14T07:48:25.124Z,17.87
2018-07-14T07:50:53.606Z,16.27
2018-07-14T07:53:22.085Z,17.03
2018-07-14T07:55:50.677Z,15.47
2018-07-14T07:58:19.246Z,15.80
2018-07-14T08:00:47.742Z,15.43
2018-07-14T08:03:16.222Z,16.70
2018-07-14T08:05:44.705Z,16.37
2018-07-14T08:08:13.141Z,12.57
2018-07-14T08:10:41.576Z,15.97
2018-07-14T08:13:10.047Z,12.20
2018-07-14T08:15:49.601Z,15.00
2018-07-14T08:18:18.105Z,11.47
2018-07-14T08:20:46.647Z,15.53
2018-07-14T08:23:15.117Z,12.00
2018-07-14T08:25:43.609Z,13.57
2018-07-14T08:28:12.113Z,14.50
2018-07-14T08:30:40.572Z,11.53
2018-07-14T08:33:09.052Z,12.83
2018-07-14T08:35:37.551Z,14.73
2018-07-14T08:38:06.073Z,11.50
2018-07-14T08:40:34.597Z,13.80
2018-07-14T08:43:03.063Z,14.27
2018-07-14T08:45:31.654Z,11.40
2018-07-14T08:48:00.197Z,13.20
2018-07-14T08:50:28.646Z,11.10
2018-07-14T08:52:57.276Z,13.47
2018-07-14T08:55:25.806Z,10.30
2018-07-14T08:57:54.323Z,14.30
2018-07-14T09:00:22.826Z,10.70
2018-07-14T09:03:40.574Z,14.23
2018-07-14T09:06:09.201Z,11.37
2018-07-14T09:08:37.883Z,13.90
2018-07-14T09:11:06.579Z,9.63
2018-07-14T09:13:38.796Z,13.30
2018-07-14T09:16:07.408Z,10.07
2018-07-14T09:18:35.929Z,12.20
2018-07-14T09:21:04.414Z,8.77
2018-07-14T09:23:33.073Z,10.47
2018-07-14T09:26:01.584Z,9.53
2018-07-14T09:28:30.057Z,11.03
2018-07-14T09:30:58.613Z,9.33
2018-07-14T09:33:27.104Z,9.07
2018-07-14T09:35:55.596Z,10.37
2018-07-14T09:38:24.058Z,9.20
2018-07-14T09:40:52.549Z,8.37
2018-07-14T09:43:21.169Z,10.10
2018-07-14T09:45:49.597Z,7.23
2018-07-14T09:48:18.033Z,9.33
2018-07-14T09:50:46.605Z,9.17
2018-07-14T09:53:15.170Z,10.33
2018-07-14T09:55:43.638Z,8.57
2018-07-14T09:58:12.151Z,11.17
2018-07-14T10:00:45.883Z,9.13
2018-07-14T10:03:14.332Z,9.33
2018-07-14T10:05:43.002Z,7.57
2018-07-14T10:08:11.485Z,8.03
2018-07-14T10:10:39.953Z,8.33
2018-07-14T10:13:08.503Z,10.47
2018-07-14T10:15:37.017Z,8.40
2018-07-14T10:18:05.603Z,8.43
2018-07-14T10:20:34.086Z,8.50
2018-07-14T10:23:02.718Z,6.87
2018-07-14T10:25:31.259Z,9.77
2018-07-14T10:27:59.741Z,7.27
2018-07-14T10:30:28.345Z,7.27
2018-07-14T10:32:57.113Z,7.87
2018-07-14T10:35:25.615Z,8.73
2018-07-14T10:37:54.072Z,7.60
2018-07-14T10:40:22.558Z,7.63
2018-07-14T10:42:51.020Z,6.83
2018-07-14T10:45:19.482Z,8.10
2018-07-14T10:47:47.929Z,6.80
2018-07-14T10:50:16.461Z,9.53
2018-07-14T10:52:44.931Z,8.43
2018-07-14T10:55:13.543Z,10.23
2018-07-14T10:57:41.959Z,7.37
2018-07-14T11:00:19.623Z,7.67
2018-07-14T11:02:48.121Z,7.57
2018-07-14T11:05:16.697Z,8.60
2018-07-14T11:07:50.535Z,5.57
2018-07-14T11:10:19.071Z,5.10
2018-07-14T11:12:47.503Z,5.10
2018-07-14T11:15:15.960Z,6.10
2018-07-14T11:17:44.502Z,5.67
2018-07-14T11:20:12.985Z,5.37
2018-07-14T11:22:41.482Z,4.80
2018-07-14T11:25:09.947Z,5.27
2018-07-14T11:27:38.519Z,4.83
2018-07-14T11:30:07.109Z,5.60
2018-07-14T11:32:35.599Z,5.03
2018-07-14T11:35:04.117Z,4.87
2018-07-14T11:37:32.694Z,4.87
2018-07-14T11:40:01.977Z,5.30
2018-07-14T11:42:30.462Z,4.93
2018-07-14T11:45:13.689Z,4.50
2018-07-14T11:47:42.303Z,3.70
2018-07-14T11:50:10.759Z,3.70
2018-07-14T11:52:39.218Z,4.83
2018-07-14T11:55:07.758Z,3.87
2018-07-14T11:57:36.200Z,3.53
2018-07-14T12:00:04.905Z,4.17
2018-07-14T12:02:33.461Z,4.40
2018-07-14T12:05:03.196Z,3.70
2018-07-14T12:07:31.897Z,3.23
2018-07-14T12:10:00.386Z,3.47
2018-07-14T12:12:28.831Z,2.97
2018-07-14T12:14:57.349Z,3.43
2018-07-14T12:17:25.826Z,3.60
2018-07-14T12:19:54.285Z,3.20
2018-07-14T12:22:22.892Z,3.40
2018-07-14T12:24:51.328Z,4.27
2018-07-14T12:27:19.816Z,3.37
2018-07-14T12:29:48.321Z,4.00
2018-07-14T12:32:16.777Z,3.43
2018-07-14T12:34:45.267Z,3.97
2018-07-14T12:37:13.773Z,3.73
2018-07-14T12:39:42.261Z,3.50
2018-07-14T12:42:10.829Z,3.90
2018-07-14T12:44:39.308Z,3.60
2018-07-14T12:47:07.792Z,3.73
2018-07-14T12:49:36.272Z,3.33
2018-07-14T12:52:04.854Z,3.47
2018-07-14T12:54:33.353Z,3.77
2018-07-14T12:57:01.979Z,3.73
2018-07-14T12:59:30.513Z,3.23
2018-07-14T13:01:58.993Z,2.90
2018-07-14T13:04:27.476Z,2.97
2018-07-14T13:06:56.017Z,3.03
2018-07-14T13:09:24.556Z,3.00
2018-07-14T13:11:53.042Z,3.10
2018-07-14T13:14:21.601Z,3.13
2018-07-14T13:16:50.090Z,2.67
2018-07-14T13:19:18.784Z,3.17
2018-07-14T13:21:47.277Z,2.97
2018-07-14T13:24:15.839Z,2.53
2018-07-14T13:26:44.338Z,2.93
2018-07-14T13:29:12.827Z,2.20
2018-07-14T13:31:54.572Z,2.60
2018-07-14T13:34:23.068Z,2.80
2018-07-14T13:36:58.722Z,2.17
2018-07-14T13:39:27.260Z,2.70
2018-07-14T13:41:55.716Z,2.70
2018-07-14T13:44:24.239Z,2.50
2018-07-14T13:46:52.753Z,2.67
2018-07-14T13:49:21.431Z,2.80
2018-07-14T13:51:50.015Z,2.67
2018-07-14T13:54:18.841Z,2.40
2018-07-14T13:56:47.440Z,3.00
2018-07-14T13:59:16.068Z,3.10
2018-07-14T14:01:45.009Z,2.87
2018-07-14T14:04:13.513Z,2.43
2018-07-14T14:06:41.977Z,2.70
2018-07-14T14:09:10.549Z,2.17
2018-07-14T14:11:38.986Z,2.63
2018-07-14T14:14:07.927Z,2.47
2018-07-14T14:16:36.472Z,2.80
2018-07-14T14:19:05.350Z,2.40
2018-07-14T14:21:33.968Z,2.63
2018-07-14T14:24:02.506Z,3.10
2018-07-14T14:26:41.855Z,2.37
2018-07-14T14:29:10.280Z,2.80
2018-07-14T14:31:38.824Z,2.40
2018-07-14T14:34:07.294Z,2.43
2018-07-14T14:36:35.776Z,2.27
2018-07-14T14:39:05.516Z,2.33
2018-07-14T14:41:34.133Z,2.70
2018-07-14T14:44:02.676Z,2.43
2018-07-14T14:46:31.256Z,2.40
2018-07-14T14:48:59.807Z,2.30
2018-07-14T14:51:28.237Z,2.37
2018-07-14T14:53:57.396Z,2.60
2018-07-14T14:56:26.074Z,2.60
2018-07-14T14:58:54.530Z,2.70
2018-07-14T15:01:23.052Z,2.23
2018-07-14T15:03:51.646Z,2.47
2018-07-14T15:06:20.209Z,2.50
2018-07-14T15:08:49.009Z,2.53
2018-07-14T15:11:17.920Z,1.97
2018-07-14T15:13:46.483Z,2.83
2018-07-14T15:16:15.054Z,2.47
2018-07-14T15:18:43.538Z,2.23
2018-07-14T15:21:12.006Z,2.87
2018-07-14T15:23:40.485Z,2.20
2018-07-14T15:26:09.001Z,2.07
2018-07-14T15:28:37.462Z,2.10
2018-07-14T15:31:06.130Z,2.67
2018-07-14T15:33:34.611Z,2.20
2018-07-14T15:36:03.109Z,2.17
2018-07-14T15:38:31.722Z,2.33
2018-07-14T15:41:00.223Z,2.07
2018-07-14T15:43:28.772Z,1.90
2018-07-14T15:45:57.381Z,2.03
2018-07-14T15:48:40.000Z,2.20
2018-07-14T15:51:08.464Z,2.50
2018-07-14T15:53:40.138Z,1.90
2018-07-14T15:56:08.644Z,2.20
2018-07-14T15:58:37.146Z,2.10
2018-07-14T16:01:05.822Z,2.20
2018-07-14T16:03:34.503Z,2.20
2018-07-14T16:06:03.147Z,1.90
2018-07-14T16:08:32.185Z,2.20
2018-07-14T16:11:00.767Z,2.10
2018-07-14T16:13:29.248Z,2.37
2018-07-14T16:16:03.321Z,2.20
2018-07-14T16:18:32.389Z,2.00
2018-07-14T16:21:00.989Z,2.07
2018-07-14T16:23:29.422Z,2.10
2018-07-14T16:25:57.909Z,1.80
2018-07-14T16:28:26.363Z,2.10
2018-07-14T16:31:00.615Z,2.20
2018-07-14T16:33:29.189Z,2.17
2018-07-14T16:35:57.846Z,1.90
2018-07-14T16:38:26.256Z,2.27
2018-07-14T16:40:55.234Z,2.17
2018-07-14T16:43:23.686Z,2.33
2018-07-14T16:45:52.300Z,2.20
2018-07-14T16:48:20.759Z,2.07
2018-07-14T16:50:49.265Z,3.03
2018-07-14T16:53:17.853Z,1.60
2018-07-14T16:55:46.433Z,2.17
2018-07-14T16:58:14.908Z,2.20
2018-07-14T17:00:43.526Z,2.10
2018-07-14T17:03:12.076Z,2.00
2018-07-14T17:05:40.554Z,2.00
2018-07-14T17:08:09.052Z,2.10
2018-07-14T17:10:37.502Z,1.50
2018-07-14T17:13:06.160Z,2.00
2018-07-14T17:15:34.707Z,1.90
2018-07-14T17:18:03.164Z,1.27
2018-07-14T17:20:31.597Z,1.87
2018-07-14T17:23:00.178Z,2.37
2018-07-14T17:25:28.819Z,2.50
2018-07-14T17:27:57.301Z,1.60
2018-07-14T17:30:25.885Z,1.20
2018-07-14T17:32:54.337Z,1.53
2018-07-14T17:35:31.236Z,1.50
2018-07-14T17:37:59.760Z,2.60
2018-07-14T17:40:28.221Z,6.90
2018-07-14T17:42:56.697Z,1.67
2018-07-14T17:45:25.271Z,1.70
2018-07-14T17:47:53.723Z,1.87
2018-07-14T17:50:22.347Z,8.20
2018-07-14T17:52:50.814Z,2.50
2018-07-14T17:55:19.304Z,1.43
2018-07-14T17:57:48.040Z,1.80
2018-07-14T18:00:16.565Z,1.77
2018-07-14T18:02:45.349Z,2.00
2018-07-14T18:05:13.950Z,2.30
2018-07-14T18:07:42.426Z,1.93
2018-07-14T18:10:10.999Z,2.10
2018-07-14T18:12:39.472Z,1.70
2018-07-14T18:15:08.078Z,1.53
2018-07-14T18:17:36.546Z,1.60
2018-07-14T18:20:05.259Z,1.37
2018-07-14T18:22:33.723Z,2.40
2018-07-14T18:25:02.201Z,12.70
2018-07-14T18:27:30.633Z,3.47
2018-07-14T18:29:59.153Z,1.40
2018-07-14T18:32:27.641Z,1.60
2018-07-14T18:34:56.213Z,1.97
2018-07-14T18:37:24.652Z,2.00
2018-07-14T18:39:53.103Z,2.47
2018-07-14T18:42:21.544Z,1.50
2018-07-14T18:44:51.157Z,3.03
2018-07-14T18:47:19.663Z,2.17
2018-07-14T18:49:48.237Z,2.00
2018-07-14T18:52:16.758Z,2.60
2018-07-14T18:54:45.316Z,2.00
2018-07-14T18:57:13.772Z,2.07
2018-07-14T18:59:42.190Z,1.90
2018-07-14T19:02:10.802Z,2.37
2018-07-14T19:04:39.322Z,2.10
2018-07-14T19:07:08.001Z,3.40
2018-07-14T19:09:36.490Z,7.23
2018-07-14T19:12:05.155Z,8.70
2018-07-14T19:14:33.652Z,7.37
2018-07-14T19:17:02.260Z,13.83
2018-07-14T19:19:48.961Z,3.10
2018-07-14T19:22:17.510Z,3.50
2018-07-14T19:24:46.058Z,2.80
2018-07-14T19:27:14.621Z,1.87
2018-07-14T19:29:43.184Z,1.47
2018-07-14T19:32:11.798Z,2.17
2018-07-14T19:34:40.289Z,1.50
2018-07-14T19:37:08.845Z,2.40
2018-07-14T19:39:37.316Z,2.13
2018-07-14T19:42:05.907Z,2.83
2018-07-14T19:44:34.309Z,1.93
2018-07-14T19:47:02.766Z,2.37
2018-07-14T19:49:31.247Z,1.67
2018-07-14T19:51:59.879Z,2.33
2018-07-14T19:54:28.372Z,2.10
2018-07-14T19:56:56.992Z,1.93
2018-07-14T19:59:25.546Z,2.10
2018-07-14T20:01:54.069Z,1.97
2018-07-14T20:04:22.608Z,2.00
2018-07-14T20:06:51.136Z,2.50
2018-07-14T20:09:19.599Z,1.93
2018-07-14T20:11:48.071Z,1.77
2018-07-14T20:14:16.624Z,2.20
2018-07-14T20:16:45.102Z,2.17
2018-07-14T20:19:13.722Z,2.20
2018-07-14T20:21:42.244Z,2.10
2018-07-14T20:24:10.761Z,2.20
2018-07-14T20:26:39.297Z,2.43
2018-07-14T20:29:07.893Z,2.03
2018-07-14T20:31:36.505Z,2.60
2018-07-14T20:34:05.353Z,4.23
2018-07-14T20:36:33.993Z,2.40
2018-07-14T20:39:02.623Z,3.00
2018-07-14T20:41:31.255Z,2.70
2018-07-14T20:43:59.683Z,2.60
2018-07-14T20:46:28.180Z,2.40
2018-07-14T20:48:56.637Z,2.50
2018-07-14T20:51:26.277Z,2.63
2018-07-14T20:53:54.851Z,2.63
2018-07-14T20:56:23.404Z,3.00
2018-07-14T20:58:52.730Z,2.37
2018-07-14T21:01:21.217Z,3.03
2018-07-14T21:03:49.724Z,2.40
2018-07-14T21:06:18.282Z,10.07
2018-07-14T21:08:46.907Z,4.87
2018-07-14T21:11:15.465Z,3.63
2018-07-14T21:13:44.050Z,2.70
2018-07-14T21:16:12.645Z,2.13
2018-07-14T21:18:41.380Z,2.10
2018-07-14T21:21:09.942Z,2.40
2018-07-14T21:23:38.570Z,2.90
2018-07-14T21:26:07.157Z,2.87
2018-07-14T21:28:35.852Z,3.17
2018-07-14T21:31:04.365Z,2.23
2018-07-14T21:33:32.939Z,2.43
2018-07-14T21:36:01.395Z,3.33
2018-07-14T21:38:29.879Z,2.57
2018-07-14T21:40:58.390Z,2.70
2018-07-14T21:43:26.928Z,2.93
2018-07-14T21:45:55.622Z,2.63
2018-07-14T21:48:24.217Z,2.63
2018-07-14T21:50:52.692Z,2.27
2018-07-14T21:53:21.196Z,2.40
2018-07-14T21:55:49.753Z,2.57
2018-07-14T21:58:18.252Z,3.03
2018-07-14T22:00:52.264Z,2.77
2018-07-14T22:03:20.775Z,3.03
2018-07-14T22:05:49.233Z,3.17
2018-07-14T22:08:17.790Z,2.97
2018-07-14T22:10:46.275Z,2.43
2018-07-14T22:13:14.832Z,3.07
2018-07-14T22:15:43.593Z,2.90
2018-07-14T22:18:12.178Z,2.47
2018-07-14T22:20:40.731Z,3.83
2018-07-14T22:23:09.367Z,3.17
2018-07-14T22:25:37.895Z,3.87
2018-07-14T22:28:06.472Z,3.80
2018-07-14T22:30:35.060Z,2.57
2018-07-14T22:33:03.572Z,3.27
2018-07-14T22:35:32.022Z,2.63
2018-07-14T22:38:00.490Z,3.73
2018-07-14T22:40:29.123Z,3.20
2018-07-14T22:42:57.675Z,2.87
2018-07-14T22:45:26.253Z,3.37
2018-07-14T22:47:54.705Z,3.10
2018-07-14T22:50:23.162Z,3.20
2018-07-14T22:52:51.700Z,2.90
2018-07-14T22:55:20.323Z,3.37
2018-07-14T22:57:48.765Z,3.20
2018-07-14T23:00:17.249Z,3.03
2018-07-14T23:02:45.766Z,2.87
2018-07-14T23:05:14.299Z,2.90
2018-07-14T23:07:42.788Z,3.17
2018-07-14T23:10:11.324Z,3.53
2018-07-14T23:12:39.846Z,3.40
2018-07-14T23:15:08.348Z,4.10
2018-07-14T23:17:36.916Z,3.20
2018-07-14T23:20:05.521Z,3.47
2018-07-14T23:22:33.973Z,3.63
2018-07-14T23:25:02.469Z,3.53
2018-07-14T23:27:31.003Z,3.30
2018-07-14T23:29:59.535Z,3.93
2018-07-14T23:32:28.022Z,3.23
2018-07-14T23:34:56.474Z,3.63
2018-07-14T23:37:25.101Z,2.90
2018-07-14T23:39:53.545Z,3.10
2018-07-14T23:42:22.044Z,4.00
2018-07-14T23:44:50.555Z,3.67
2018-07-14T23:47:18.997Z,4.20
2018-07-14T23:49:47.484Z,4.30
2018-07-14T23:52:15.911Z,4.20
2018-07-14T23:54:44.372Z,4.00
2018-07-14T23:57:12.836Z,5.20
2018-07-14T23:59:41.317Z,4.13
